Milk And Honey — WDF9265 — position and weather

sailwx.info

Track history (hours):
 
Tides and Currents Weather Stations Pressure Air Temp Water Temp Dewpoint Dewpoint Depression Visibility Wind Speed Wind Dir Waves Ship Positions

Milk And Honey

Owner: EKS Chartering Inc, Parsippany, NJ. More information available from US FCC via Universal Licensing System and Coast Guard Vessel Documentation Center.

Last reported at 2015-May-26 13:05 UTC. Time now 2015-May-28 14:15 UTC.
Position N 18°07' W 063°04'.

Length 40 m.

Type: Pleasure craft. MMSI: 367503380.

Date/timePositionNaut miles runAvg speedWind from/ knotsBaromVisibWave heightAir tempDewpointWater temp
2015-May-26 13:05N 18°07' W 063°04'4 6.4
2015-May-26 12:32N 18°04' W 063°05'0 0.0
2015-May-26 11:31N 18°04' W 063°05'0 0.0
2015-May-26 10:33N 18°04' W 063°05'0 0.0
2015-May-26 09:32N 18°04' W 063°05'0 0.0
2015-May-26 08:32N 18°04' W 063°05'0 0.0
2015-May-26 07:33N 18°04' W 063°05'0 0.0
2015-May-26 06:32N 18°04' W 063°05'0 0.0
2015-May-26 05:33N 18°04' W 063°05'0 0.0
2015-May-26 04:33N 18°04' W 063°05'0 0.0
2015-May-26 03:31N 18°04' W 063°05'0 0.0
2015-May-26 02:33N 18°04' W 063°05'0 0.0
2015-May-26 01:31N 18°04' W 063°05'0 0.0
2015-May-26 00:32N 18°04' W 063°05'0 0.0
2015-May-25 23:32N 18°04' W 063°05'3 3.2
2015-May-25 22:33N 18°06' W 063°08'3 0.5
2015-May-25 16:33N 18°09' W 063°09'2 2.2
2015-May-25 15:31N 18°10' W 063°07'0 0.0
2015-May-25 14:33N 18°10' W 063°07'0 0.0
2015-May-25 13:33N 18°10' W 063°07'0 0.0
2015-May-25 12:29N 18°10' W 063°07'0 0.0
2015-May-25 11:33N 18°10' W 063°07'0 0.0
2015-May-25 10:33N 18°10' W 063°07'0 0.0
2015-May-25 09:31N 18°10' W 063°07'0 0.0
2015-May-25 08:32N 18°10' W 063°07'0 0.0
2015-May-25 07:33N 18°10' W 063°07'0 0.0
2015-May-25 06:33N 18°10' W 063°07'0 0.0
2015-May-25 05:31N 18°10' W 063°07'0 0.0
2015-May-25 04:33N 18°10' W 063°07'0 0.0
2015-May-25 03:30N 18°10' W 063°07'0 0.0
2015-May-25 02:29N 18°10' W 063°07'0 0.2
2015-May-24 23:33N 18°10' W 063°06'10 2.4
2015-May-24 19:29N 18°01' W 063°03'0 0.0
2015-May-24 18:19N 18°01' W 063°03'0 0.0
2015-May-24 17:33N 18°01' W 063°03'2 4.5
2015-May-24 17:10N 18°01' W 063°05'2 2.7
2015-May-24 16:32N 18°02' W 063°06'0 1.2
2015-May-24 16:30N 18°02' W 063°06'0 0.0
2015-May-24 15:33N 18°02' W 063°06'010.3
2015-May-24 15:33N 18°02' W 063°06'0 0.5
2015-May-24 14:33N 18°02' W 063°06'0 1.3
2015-May-24 14:26N 18°02' W 063°06'0 0.1
2015-May-24 13:33N 18°02' W 063°05'0 0.0
2015-May-24 13:18N 18°02' W 063°05'0 0.0
2015-May-24 12:33N 18°02' W 063°05'0 2.1
2015-May-24 12:33N 18°02' W 063°05'0 0.0
2015-May-24 11:33N 18°02' W 063°05'0 0.0
2015-May-24 11:09N 18°02' W 063°05'0 0.0
2015-May-24 10:33N 18°02' W 063°05'0 0.1
2015-May-24 10:24N 18°02' W 063°05'0 0.0
2015-May-24 09:33N 18°02' W 063°05'0 0.1
2015-May-24 09:24N 18°02' W 063°05'0 0.0
2015-May-24 08:32N 18°02' W 063°05'0 0.1
2015-May-24 08:27N 18°02' W 063°05'0 0.0
2015-May-24 07:33N 18°02' W 063°05'0 0.1
2015-May-24 07:30N 18°02' W 063°05'0 0.0
2015-May-24 06:32N 18°02' W 063°05'0 0.1
2015-May-24 06:27N 18°02' W 063°05'0 0.0
2015-May-24 05:32N 18°02' W 063°05'0 0.1
2015-May-24 05:27N 18°02' W 063°05'0 0.0
2015-May-24 04:33N 18°02' W 063°05'0 0.2
2015-May-24 04:30N 18°02' W 063°05'0 0.0
2015-May-24 03:33N 18°02' W 063°05'0 3.2
2015-May-24 03:33N 18°02' W 063°05'0 0.0
2015-May-24 02:33N 18°02' W 063°05'0 0.5
2015-May-24 02:32N 18°02' W 063°05'0 0.0
2015-May-24 01:33N 18°02' W 063°05'0 0.0
2015-May-24 01:30N 18°02' W 063°05'0 0.0
2015-May-24 00:33N 18°02' W 063°05'0 0.0
2015-May-24 00:32N 18°02' W 063°05'0 0.0
2015-May-23 23:33N 18°02' W 063°05'0 0.0
2015-May-23 22:32N 18°02' W 063°05'0 0.0
2015-May-23 22:21N 18°02' W 063°05'0 0.0
2015-May-23 21:33N 18°02' W 063°05'0 0.0
2015-May-23 21:24N 18°02' W 063°05'0 0.0
2015-May-23 20:31N 18°02' W 063°05'0 0.1
2015-May-23 20:27N 18°02' W 063°05'0 0.0
2015-May-23 19:33N 18°02' W 063°05'0 0.1
2015-May-23 19:27N 18°02' W 063°05'0 0.0
2015-May-23 18:32N 18°02' W 063°05'0 0.0
2015-May-23 17:33N 18°02' W 063°05'0 1.0
2015-May-23 17:32N 18°02' W 063°05'0 0.0
2015-May-23 16:33N 18°02' W 063°05'0 0.0
2015-May-23 16:20N 18°02' W 063°05'0 0.0
2015-May-23 15:32N 18°02' W 063°05'0 0.0
2015-May-23 15:24N 18°02' W 063°05'0 0.0
2015-May-23 14:33N 18°02' W 063°05'0 0.0
2015-May-23 14:23N 18°02' W 063°05'0 0.0
2015-May-23 13:32N 18°02' W 063°05'0 0.0
2015-May-23 13:21N 18°02' W 063°05'0 0.0
2015-May-23 12:33N 18°02' W 063°05'0 0.0
2015-May-23 12:11N 18°02' W 063°05'0 0.0
2015-May-23 11:33N 18°02' W 063°05'0 0.1
2015-May-23 11:26N 18°02' W 063°05'0 0.0
2015-May-23 10:34N 18°02' W 063°05'0 0.0
2015-May-23 10:24N 18°02' W 063°05'0 0.0
2015-May-23 09:32N 18°02' W 063°05'0 0.3
2015-May-23 09:30N 18°02' W 063°05'0 0.0
2015-May-23 08:32N 18°02' W 063°05'0 0.1
2015-May-23 08:27N 18°02' W 063°05'0 0.0
2015-May-23 07:33N 18°02' W 063°05'0 0.1
2015-May-23 07:29N 18°02' W 063°05'0 0.0
2015-May-23 06:32N 18°02' W 063°05'0 0.3
2015-May-23 06:31N 18°02' W 063°05'0 0.0
2015-May-23 05:32N 18°02' W 063°05'0 0.0
2015-May-23 04:33N 18°02' W 063°05'0 4.8
2015-May-23 04:32N 18°02' W 063°05'0 0.0
2015-May-23 03:33N 18°02' W 063°05'0 1.4
2015-May-23 03:33N 18°02' W 063°05'0 0.0
2015-May-23 02:32N 18°02' W 063°05'0 0.0
2015-May-23 02:17N 18°02' W 063°05'0 0.0
2015-May-23 01:32N 18°02' W 063°05'0 0.0
2015-May-23 01:06N 18°02' W 063°05'0 0.0
2015-May-23 00:33N 18°02' W 063°05'0 0.0
2015-May-23 00:24N 18°02' W 063°05'0 0.0
2015-May-22 23:33N 18°02' W 063°05'0 0.1
2015-May-22 23:27N 18°02' W 063°05'0 0.0
2015-May-22 22:33N 18°02' W 063°05'0 0.1
2015-May-22 22:21N 18°02' W 063°05'0 0.0
2015-May-22 21:33N 18°02' W 063°05'0 0.0
2015-May-22 20:32N 18°02' W 063°05'0 0.0
2015-May-22 19:33N 18°02' W 063°05'1 0.6
2015-May-22 18:33N 18°02' W 063°06'1 4.6
2015-May-22 18:26N 18°02' W 063°05'1 0.6
2015-May-22 17:32N 18°02' W 063°06'4 3.8
2015-May-22 16:33N 18°03' W 063°10'7 0.4
2015-May-22 00:17N 18°10' W 063°10'  
2015-May-19 13:26N 18°10' W 063°06'1 0.6
2015-May-19 12:32N 18°10' W 063°07'0 0.0
2015-May-19 10:09N 18°10' W 063°07'0 0.0
2015-May-18 16:32N 18°10' W 063°07'0 0.0
2015-May-18 15:26N 18°10' W 063°07'0 0.0
2015-May-18 14:31N 18°10' W 063°07'0 0.0
2015-May-18 13:28N 18°10' W 063°07'0 0.0
2015-May-18 12:26N 18°10' W 063°07'0 0.0
2015-May-18 11:23N 18°10' W 063°07'0 0.0
2015-May-17 18:23N 18°10' W 063°07'0 0.0
2015-May-17 17:33N 18°10' W 063°07'0 0.0
2015-May-17 16:32N 18°10' W 063°07'0 0.0
2015-May-17 15:31N 18°10' W 063°07'416.2
2015-May-17 15:16N 18°09' W 063°11'4 5.5
2015-May-17 14:33N 18°10' W 063°07'0 0.0
2015-May-17 13:25N 18°10' W 063°07'0 0.0
2015-May-17 12:33N 18°10' W 063°07'0 0.0
2015-May-17 11:28N 18°10' W 063°07'0 0.0
2015-May-17 09:25N 18°10' W 063°07'0 0.0
2015-May-17 08:29N 18°10' W 063°07'0 0.0
2015-May-16 21:28N 18°10' W 063°07'3 3.2
2015-May-16 20:28N 18°09' W 063°10'  
Track history (hours):
 
Tides and Currents Weather Stations Pressure Air Temp Water Temp Dewpoint Dewpoint Depression Visibility Wind Speed Wind Dir Waves Ship Positions

Milk And Honey

Owner: EKS Chartering Inc, Parsippany, NJ. More information available from US FCC via Universal Licensing System and Coast Guard Vessel Documentation Center.

Last reported at 2015-May-26 13:05 UTC. Time now 2015-May-28 14:15 UTC.
Position N 18°07' W 063°04'.

Length 40 m.

Type: Pleasure craft. MMSI: 367503380.

Date/timePositionNaut miles runAvg speedWind from/ knotsBaromVisibWave heightAir tempDewpointWater temp
2015-May-26 13:05N 18°07' W 063°04'4 6.4
2015-May-26 12:32N 18°04' W 063°05'0 0.0
2015-May-26 11:31N 18°04' W 063°05'0 0.0
2015-May-26 10:33N 18°04' W 063°05'0 0.0
2015-May-26 09:32N 18°04' W 063°05'0 0.0
2015-May-26 08:32N 18°04' W 063°05'0 0.0
2015-May-26 07:33N 18°04' W 063°05'0 0.0
2015-May-26 06:32N 18°04' W 063°05'0 0.0
2015-May-26 05:33N 18°04' W 063°05'0 0.0
2015-May-26 04:33N 18°04' W 063°05'0 0.0
2015-May-26 03:31N 18°04' W 063°05'0 0.0
2015-May-26 02:33N 18°04' W 063°05'0 0.0
2015-May-26 01:31N 18°04' W 063°05'0 0.0
2015-May-26 00:32N 18°04' W 063°05'0 0.0
2015-May-25 23:32N 18°04' W 063°05'3 3.2
2015-May-25 22:33N 18°06' W 063°08'3 0.5
2015-May-25 16:33N 18°09' W 063°09'2 2.2
2015-May-25 15:31N 18°10' W 063°07'0 0.0
2015-May-25 14:33N 18°10' W 063°07'0 0.0
2015-May-25 13:33N 18°10' W 063°07'0 0.0
2015-May-25 12:29N 18°10' W 063°07'0 0.0
2015-May-25 11:33N 18°10' W 063°07'0 0.0
2015-May-25 10:33N 18°10' W 063°07'0 0.0
2015-May-25 09:31N 18°10' W 063°07'0 0.0
2015-May-25 08:32N 18°10' W 063°07'0 0.0
2015-May-25 07:33N 18°10' W 063°07'0 0.0
2015-May-25 06:33N 18°10' W 063°07'0 0.0
2015-May-25 05:31N 18°10' W 063°07'0 0.0
2015-May-25 04:33N 18°10' W 063°07'0 0.0
2015-May-25 03:30N 18°10' W 063°07'0 0.0
2015-May-25 02:29N 18°10' W 063°07'0 0.2
2015-May-24 23:33N 18°10' W 063°06'10 2.4
2015-May-24 19:29N 18°01' W 063°03'0 0.0
2015-May-24 18:19N 18°01' W 063°03'0 0.0
2015-May-24 17:33N 18°01' W 063°03'2 4.5
2015-May-24 17:10N 18°01' W 063°05'2 2.7
2015-May-24 16:32N 18°02' W 063°06'0 1.2
2015-May-24 16:30N 18°02' W 063°06'0 0.0
2015-May-24 15:33N 18°02' W 063°06'010.3
2015-May-24 15:33N 18°02' W 063°06'0 0.5
2015-May-24 14:33N 18°02' W 063°06'0 1.3
2015-May-24 14:26N 18°02' W 063°06'0 0.1
2015-May-24 13:33N 18°02' W 063°05'0 0.0
2015-May-24 13:18N 18°02' W 063°05'0 0.0
2015-May-24 12:33N 18°02' W 063°05'0 2.1
2015-May-24 12:33N 18°02' W 063°05'0 0.0
2015-May-24 11:33N 18°02' W 063°05'0 0.0
2015-May-24 11:09N 18°02' W 063°05'0 0.0
2015-May-24 10:33N 18°02' W 063°05'0 0.1
2015-May-24 10:24N 18°02' W 063°05'0 0.0
2015-May-24 09:33N 18°02' W 063°05'0 0.1
2015-May-24 09:24N 18°02' W 063°05'0 0.0
2015-May-24 08:32N 18°02' W 063°05'0 0.1
2015-May-24 08:27N 18°02' W 063°05'0 0.0
2015-May-24 07:33N 18°02' W 063°05'0 0.1
2015-May-24 07:30N 18°02' W 063°05'0 0.0
2015-May-24 06:32N 18°02' W 063°05'0 0.1
2015-May-24 06:27N 18°02' W 063°05'0 0.0
2015-May-24 05:32N 18°02' W 063°05'0 0.1
2015-May-24 05:27N 18°02' W 063°05'0 0.0
2015-May-24 04:33N 18°02' W 063°05'0 0.2
2015-May-24 04:30N 18°02' W 063°05'0 0.0
2015-May-24 03:33N 18°02' W 063°05'0 3.2
2015-May-24 03:33N 18°02' W 063°05'0 0.0
2015-May-24 02:33N 18°02' W 063°05'0 0.5
2015-May-24 02:32N 18°02' W 063°05'0 0.0
2015-May-24 01:33N 18°02' W 063°05'0 0.0
2015-May-24 01:30N 18°02' W 063°05'0 0.0
2015-May-24 00:33N 18°02' W 063°05'0 0.0
2015-May-24 00:32N 18°02' W 063°05'0 0.0
2015-May-23 23:33N 18°02' W 063°05'0 0.0
2015-May-23 22:32N 18°02' W 063°05'0 0.0
2015-May-23 22:21N 18°02' W 063°05'0 0.0
2015-May-23 21:33N 18°02' W 063°05'0 0.0
2015-May-23 21:24N 18°02' W 063°05'0 0.0
2015-May-23 20:31N 18°02' W 063°05'0 0.1
2015-May-23 20:27N 18°02' W 063°05'0 0.0
2015-May-23 19:33N 18°02' W 063°05'0 0.1
2015-May-23 19:27N 18°02' W 063°05'0 0.0
2015-May-23 18:32N 18°02' W 063°05'0 0.0
2015-May-23 17:33N 18°02' W 063°05'0 1.0
2015-May-23 17:32N 18°02' W 063°05'0 0.0
2015-May-23 16:33N 18°02' W 063°05'0 0.0
2015-May-23 16:20N 18°02' W 063°05'0 0.0
2015-May-23 15:32N 18°02' W 063°05'0 0.0
2015-May-23 15:24N 18°02' W 063°05'0 0.0
2015-May-23 14:33N 18°02' W 063°05'0 0.0
2015-May-23 14:23N 18°02' W 063°05'0 0.0
2015-May-23 13:32N 18°02' W 063°05'0 0.0
2015-May-23 13:21N 18°02' W 063°05'0 0.0
2015-May-23 12:33N 18°02' W 063°05'0 0.0
2015-May-23 12:11N 18°02' W 063°05'0 0.0
2015-May-23 11:33N 18°02' W 063°05'0 0.1
2015-May-23 11:26N 18°02' W 063°05'0 0.0
2015-May-23 10:34N 18°02' W 063°05'0 0.0
2015-May-23 10:24N 18°02' W 063°05'0 0.0
2015-May-23 09:32N 18°02' W 063°05'0 0.3
2015-May-23 09:30N 18°02' W 063°05'0 0.0
2015-May-23 08:32N 18°02' W 063°05'0 0.1
2015-May-23 08:27N 18°02' W 063°05'0 0.0
2015-May-23 07:33N 18°02' W 063°05'0 0.1
2015-May-23 07:29N 18°02' W 063°05'0 0.0
2015-May-23 06:32N 18°02' W 063°05'0 0.3
2015-May-23 06:31N 18°02' W 063°05'0 0.0
2015-May-23 05:32N 18°02' W 063°05'0 0.0
2015-May-23 04:33N 18°02' W 063°05'0 4.8
2015-May-23 04:32N 18°02' W 063°05'0 0.0
2015-May-23 03:33N 18°02' W 063°05'0 1.4
2015-May-23 03:33N 18°02' W 063°05'0 0.0
2015-May-23 02:32N 18°02' W 063°05'0 0.0
2015-May-23 02:17N 18°02' W 063°05'0 0.0
2015-May-23 01:32N 18°02' W 063°05'0 0.0
2015-May-23 01:06N 18°02' W 063°05'0 0.0
2015-May-23 00:33N 18°02' W 063°05'0 0.0
2015-May-23 00:24N 18°02' W 063°05'0 0.0
2015-May-22 23:33N 18°02' W 063°05'0 0.1
2015-May-22 23:27N 18°02' W 063°05'0 0.0
2015-May-22 22:33N 18°02' W 063°05'0 0.1
2015-May-22 22:21N 18°02' W 063°05'0 0.0
2015-May-22 21:33N 18°02' W 063°05'0 0.0
2015-May-22 20:32N 18°02' W 063°05'0 0.0
2015-May-22 19:33N 18°02' W 063°05'1 0.6
2015-May-22 18:33N 18°02' W 063°06'1 4.6
2015-May-22 18:26N 18°02' W 063°05'1 0.6
2015-May-22 17:32N 18°02' W 063°06'4 3.8
2015-May-22 16:33N 18°03' W 063°10'7 0.4
2015-May-22 00:17N 18°10' W 063°10'  
2015-May-19 13:26N 18°10' W 063°06'1 0.6
2015-May-19 12:32N 18°10' W 063°07'0 0.0
2015-May-19 10:09N 18°10' W 063°07'0 0.0
2015-May-18 16:32N 18°10' W 063°07'0 0.0
2015-May-18 15:26N 18°10' W 063°07'0 0.0
2015-May-18 14:31N 18°10' W 063°07'0 0.0
2015-May-18 13:28N 18°10' W 063°07'0 0.0
2015-May-18 12:26N 18°10' W 063°07'0 0.0
2015-May-18 11:23N 18°10' W 063°07'0 0.0
2015-May-17 18:23N 18°10' W 063°07'0 0.0
2015-May-17 17:33N 18°10' W 063°07'0 0.0
2015-May-17 16:32N 18°10' W 063°07'0 0.0
2015-May-17 15:31N 18°10' W 063°07'416.2
2015-May-17 15:16N 18°09' W 063°11'4 5.5
2015-May-17 14:33N 18°10' W 063°07'0 0.0
2015-May-17 13:25N 18°10' W 063°07'0 0.0
2015-May-17 12:33N 18°10' W 063°07'0 0.0
2015-May-17 11:28N 18°10' W 063°07'0 0.0
2015-May-17 09:25N 18°10' W 063°07'0 0.0
2015-May-17 08:29N 18°10' W 063°07'0 0.0
2015-May-16 21:28N 18°10' W 063°07'3 3.2
2015-May-16 20:28N 18°09' W 063°10'  

Dump ship's entire track history